Olney, Texas
Current Conditions -  °F | °C
As of 4:50 PM on Tuesday 27 Jan 2015 (Local Time) from KRPH Reporting Station
Clear Clear  
Wind Chill: 78°   Ceiling: Unl
Heat Index: 78°   Visibility: 10mi
Dew Point: 41°   Wind: 5mph
Humidity: 27%   Direction: 200°SSW
Pressure: 30.09"   Gusts: NA
Location:  33.37°N, 98.75°W
Report Text: KRPH 272250Z AUTO 20004KT 10SM CLR 25/05 A3009 RMK AO2 T02530048
Loading
Personal Weather Stations






























Interactive Weather Map New forecast layout! Learn more

10-Day Weather Forecast

Advertisements
Track Severe Weather on mobile